Time;durP1;ratioP1;P1;durP2;ratioP2;P2;SDS_P1;SDS_P2;PMS_P1;PMS_P2;Temp;Humidity;BMP_temperature;BMP_pressure;BME280_temperature;BME280_humidity;BME280_pressure;Samples;Min_cycle;Max_cycle;Signal;HPM_P1;HPM_P2
2023/06/02 00:00:44;;;;;;;8.70;8.10;;;19.70;12.90;;;;;;4975346;28;20179;-73
2023/06/02 00:03:10;;;;;;;8.93;8.33;;;19.70;12.90;;;;;;4974209;28;20206;-72
2023/06/02 00:05:38;;;;;;;8.43;7.93;;;19.60;13.00;;;;;;4975050;28;20181;-73
2023/06/02 00:08:04;;;;;;;9.53;8.93;;;19.60;12.80;;;;;;4973930;28;20422;-73
2023/06/02 00:10:29;;;;;;;9.80;9.17;;;19.60;13.00;;;;;;4974567;28;20896;-73
2023/06/02 00:12:55;;;;;;;10.17;9.50;;;19.50;12.80;;;;;;4973507;28;20464;-74
2023/06/02 00:15:20;;;;;;;9.70;9.10;;;19.50;12.80;;;;;;4972955;28;20187;-73
2023/06/02 00:17:46;;;;;;;9.20;8.70;;;19.40;13.00;;;;;;4973952;28;20470;-73
2023/06/02 00:20:12;;;;;;;9.67;8.97;;;19.40;13.10;;;;;;4973047;28;20198;-74
2023/06/02 00:22:38;;;;;;;9.10;8.37;;;19.40;13.10;;;;;;4973468;28;20568;-73
2023/06/02 00:25:04;;;;;;;9.10;8.50;;;19.30;12.90;;;;;;4974248;28;20179;-73
2023/06/02 00:27:30;;;;;;;9.90;9.07;;;19.30;12.90;;;;;;4972740;28;20473;-73
2023/06/02 00:29:55;;;;;;;10.10;9.50;;;19.30;13.00;;;;;;4973682;28;20417;-73
2023/06/02 00:32:21;;;;;;;9.50;9.00;;;19.30;13.10;;;;;;4973114;28;20541;-73
2023/06/02 00:34:47;;;;;;;9.83;9.27;;;19.20;13.10;;;;;;4973720;28;20603;-73
2023/06/02 00:37:12;;;;;;;9.70;9.20;;;19.20;13.20;;;;;;4973460;28;20260;-73
2023/06/02 00:39:38;;;;;;;9.17;8.60;;;19.10;13.10;;;;;;4973498;28;20178;-73
2023/06/02 00:42:04;;;;;;;10.87;9.90;;;19.10;13.00;;;;;;4971624;28;20186;-73
2023/06/02 00:44:30;;;;;;;9.40;8.90;;;19.10;13.00;;;;;;4973600;28;20668;-73
2023/06/02 00:46:56;;;;;;;9.47;8.90;;;19.10;12.90;;;;;;4973526;28;20418;-73
2023/06/02 00:49:22;;;;;;;9.23;8.73;;;19.00;13.00;;;;;;4973346;28;20258;-73
2023/06/02 00:51:49;;;;;;;9.27;8.67;;;19.00;12.90;;;;;;4972721;28;20186;-73
2023/06/02 00:54:16;;;;;;;9.70;9.00;;;19.00;12.80;;;;;;4972230;28;20429;-73
2023/06/02 00:56:42;;;;;;;9.80;9.30;;;19.00;12.90;;;;;;4973487;28;20462;-73
2023/06/02 00:59:09;;;;;;;9.43;8.80;;;19.00;13.00;;;;;;4973349;28;20778;-73
2023/06/02 01:01:35;;;;;;;10.33;9.70;;;18.90;13.10;;;;;;4972174;28;20421;-73
2023/06/02 01:04:01;;;;;;;9.90;9.40;;;18.90;13.20;;;;;;4976079;28;20437;-73
2023/06/02 01:06:34;;;;;;;9.63;8.93;;;18.90;13.30;;;;;;4978363;28;20422;-73
2023/06/02 01:09:05;;;;;;;9.80;9.13;;;18.90;13.60;;;;;;4978869;28;20473;-72
2023/06/02 01:11:31;;;;;;;9.40;8.90;;;18.90;13.40;;;;;;4979114;28;20433;-73
2023/06/02 01:13:57;;;;;;;9.33;8.67;;;19.00;13.40;;;;;;4979744;28;20481;-73
2023/06/02 01:16:22;;;;;;;9.10;8.70;;;18.90;13.50;;;;;;4979797;28;20414;-73
2023/06/02 01:18:51;;;;;;;9.90;9.10;;;18.90;13.70;;;;;;4980417;28;20175;-73
2023/06/02 01:21:22;;;;;;;9.57;9.07;;;18.90;13.50;;;;;;4977489;28;20186;-72
2023/06/02 01:23:51;;;;;;;10.40;9.80;;;18.90;13.50;;;;;;4979249;28;20429;-73
2023/06/02 01:26:17;;;;;;;9.50;8.90;;;18.90;13.50;;;;;;4980013;28;20410;-74
2023/06/02 01:28:42;;;;;;;9.50;9.00;;;18.80;13.60;;;;;;4972409;28;20434;-74
2023/06/02 01:31:34;;;;;;;9.90;9.30;;;18.80;13.70;;;;;;4973361;28;20182;-74
2023/06/02 01:34:12;;;;;;;9.80;9.03;;;18.80;13.90;;;;;;4972096;28;20297;-74
2023/06/02 01:36:40;;;;;;;10.00;9.00;;;18.70;14.10;;;;;;4972892;28;20417;-73
2023/06/02 01:39:08;;;;;;;9.27;8.77;;;18.70;14.10;;;;;;4971510;28;20417;-73
2023/06/02 01:41:37;;;;;;;9.67;9.00;;;18.70;14.40;;;;;;4973027;28;20410;-73
2023/06/02 01:44:03;;;;;;;9.93;9.23;;;18.70;14.30;;;;;;4972778;28;20442;-73
2023/06/02 01:46:29;;;;;;;11.60;10.80;;;18.70;14.70;;;;;;4972727;28;20449;-73
2023/06/02 01:48:55;;;;;;;10.93;10.33;;;18.60;14.70;;;;;;4972598;28;20442;-73
2023/06/02 01:51:21;;;;;;;10.87;10.00;;;18.60;14.90;;;;;;4972393;28;20206;-73
2023/06/02 01:53:47;;;;;;;10.20;9.50;;;18.50;15.10;;;;;;4971876;28;20438;-73
2023/06/02 01:56:13;;;;;;;10.70;10.00;;;18.40;15.30;;;;;;4972605;28;20422;-73
2023/06/02 01:58:38;;;;;;;10.93;10.17;;;18.40;15.30;;;;;;4972526;28;20207;-73
2023/06/02 02:01:04;;;;;;;10.87;10.00;;;18.40;15.40;;;;;;4972024;28;20193;-73
2023/06/02 02:03:30;;;;;;;10.47;9.67;;;18.30;15.50;;;;;;4983042;28;20281;-73
2023/06/02 02:05:56;;;;;;;10.40;9.47;;;18.40;15.70;;;;;;4976569;28;20173;-73
2023/06/02 02:08:21;;;;;;;10.23;9.43;;;18.30;15.80;;;;;;4972939;28;20422;-73
2023/06/02 02:10:47;;;;;;;10.07;9.47;;;18.20;16.70;;;;;;4972326;28;20701;-73
2023/06/02 02:13:13;;;;;;;10.63;9.93;;;18.20;16.00;;;;;;4974480;28;20559;-73
2023/06/02 02:15:38;;;;;;;10.97;10.27;;;18.20;16.00;;;;;;4976482;28;20589;-73
2023/06/02 02:18:04;;;;;;;10.10;9.50;;;18.10;16.40;;;;;;4975453;28;20250;-73
2023/06/02 02:20:30;;;;;;;10.20;9.60;;;18.20;16.40;;;;;;4976235;28;20194;-73
2023/06/02 02:22:55;;;;;;;10.37;9.67;;;18.20;16.40;;;;;;4975454;28;20191;-73
2023/06/02 02:25:21;;;;;;;10.13;9.53;;;18.30;16.40;;;;;;4976036;28;20410;-73
2023/06/02 02:27:47;;;;;;;10.13;9.50;;;18.30;16.30;;;;;;4976114;28;20183;-73
2023/06/02 02:30:12;;;;;;;10.80;10.10;;;18.30;16.20;;;;;;4976025;28;20175;-73
2023/06/02 02:32:44;;;;;;;9.97;9.27;;;18.30;16.30;;;;;;4975499;28;20302;-73
2023/06/02 02:35:10;;;;;;;10.27;9.70;;;18.30;16.30;;;;;;4975752;28;20207;-72
2023/06/02 02:37:36;;;;;;;10.87;9.87;;;18.20;16.70;;;;;;4975906;28;20496;-73
2023/06/02 02:40:03;;;;;;;10.60;9.83;;;18.20;16.80;;;;;;4975900;28;20442;-74
2023/06/02 02:42:29;;;;;;;10.37;9.87;;;18.20;16.80;;;;;;4975183;28;20183;-74
2023/06/02 02:44:54;;;;;;;10.37;9.47;;;18.20;16.80;;;;;;4976168;28;20462;-73
2023/06/02 02:47:20;;;;;;;10.40;9.80;;;18.20;17.20;;;;;;4975772;28;20209;-73
2023/06/02 02:49:46;;;;;;;10.17;9.57;;;18.20;17.10;;;;;;4974781;28;20179;-73
2023/06/02 02:52:12;;;;;;;11.23;10.10;;;18.10;17.00;;;;;;4975341;28;20194;-73
2023/06/02 02:54:38;;;;;;;9.60;9.00;;;18.10;17.30;;;;;;4975765;28;20927;-73
2023/06/02 02:57:07;;;;;;;9.83;9.33;;;18.20;18.00;;;;;;4975229;28;20457;-73
2023/06/02 02:59:35;;;;;;;11.77;10.97;;;18.10;17.30;;;;;;4973354;28;20179;-73
2023/06/02 03:02:03;;;;;;;11.83;10.93;;;18.10;17.70;;;;;;4974904;28;20414;-73
2023/06/02 03:04:28;;;;;;;9.63;9.03;;;18.00;17.50;;;;;;4975325;28;20410;-74
2023/06/02 03:06:55;;;;;;;11.40;10.70;;;18.00;18.50;;;;;;4975317;28;20472;-73
2023/06/02 03:09:21;;;;;;;10.23;9.63;;;18.00;18.10;;;;;;4975369;28;20170;-74
2023/06/02 03:11:46;;;;;;;11.77;10.10;;;18.00;17.80;;;;;;4973125;28;20513;-73
2023/06/02 03:14:12;;;;;;;10.90;10.30;;;17.90;17.90;;;;;;4974231;28;20202;-73
2023/06/02 03:16:41;;;;;;;11.57;10.87;;;17.80;18.10;;;;;;4975426;28;20175;-74
2023/06/02 03:19:08;;;;;;;11.20;10.40;;;17.80;18.30;;;;;;4974848;28;20410;-73
2023/06/02 03:21:41;;;;;;;10.60;9.80;;;17.70;18.70;;;;;;4974507;28;20410;-73
2023/06/02 03:24:10;;;;;;;10.60;9.80;;;17.60;19.10;;;;;;4974226;28;20433;-73
2023/06/02 03:26:37;;;;;;;11.53;10.73;;;17.60;19.40;;;;;;4975389;28;20634;-73
2023/06/02 03:29:02;;;;;;;10.93;10.13;;;17.60;19.70;;;;;;4973651;28;20492;-73
2023/06/02 03:31:28;;;;;;;12.23;11.20;;;17.50;19.60;;;;;;4973510;28;20639;-72
2023/06/02 03:33:54;;;;;;;11.40;10.70;;;17.40;19.90;;;;;;4974802;28;20194;-72
2023/06/02 03:36:20;;;;;;;11.93;10.83;;;17.40;19.90;;;;;;4975128;28;20636;-73
2023/06/02 03:38:46;;;;;;;12.13;11.13;;;17.40;19.90;;;;;;4975202;28;20202;-74
2023/06/02 03:41:11;;;;;;;12.50;11.60;;;17.30;19.90;;;;;;4973215;28;20932;-73
2023/06/02 03:43:37;;;;;;;10.97;10.37;;;17.20;20.50;;;;;;4975043;28;20197;-74
2023/06/02 03:46:02;;;;;;;12.67;11.77;;;17.20;20.40;;;;;;4974659;28;20170;-73
2023/06/02 03:48:28;;;;;;;11.57;10.87;;;17.20;20.50;;;;;;4974186;28;20171;-74
2023/06/02 03:50:53;;;;;;;11.43;10.53;;;17.20;21.30;;;;;;4974625;28;20269;-74
2023/06/02 03:53:21;;;;;;;10.97;10.20;;;17.20;21.20;;;;;;4972721;28;20195;-73
2023/06/02 03:55:46;;;;;;;12.17;11.20;;;17.10;21.10;;;;;;4973347;28;20226;-74
2023/06/02 03:58:12;;;;;;;11.67;10.87;;;17.10;21.10;;;;;;4989199;28;20955;-74
2023/06/02 04:00:38;;;;;;;11.57;10.80;;;17.00;21.50;;;;;;4990856;28;20550;-74
2023/06/02 04:03:04;;;;;;;11.77;10.97;;;17.10;21.60;;;;;;4991538;28;20202;-74
2023/06/02 04:05:30;;;;;;;11.33;10.63;;;17.00;22.00;;;;;;4989471;28;20184;-74
2023/06/02 04:07:56;;;;;;;11.83;10.93;;;17.00;22.30;;;;;;4993174;28;20504;-74
2023/06/02 04:10:22;;;;;;;12.77;11.77;;;17.00;21.80;;;;;;4990924;28;20182;-74
2023/06/02 04:12:47;;;;;;;14.23;12.97;;;17.00;21.90;;;;;;4992452;28;20798;-74
2023/06/02 04:15:13;;;;;;;12.53;11.83;;;17.00;22.00;;;;;;4993448;28;20232;-74
2023/06/02 04:17:39;;;;;;;13.10;12.30;;;16.90;22.20;;;;;;4992869;28;20206;-74
2023/06/02 04:20:05;;;;;;;13.50;12.20;;;16.80;22.40;;;;;;4990778;28;20182;-73
2023/06/02 04:22:30;;;;;;;13.03;12.13;;;16.70;22.80;;;;;;4991265;28;20492;-73
2023/06/02 04:24:56;;;;;;;12.87;12.00;;;16.70;23.60;;;;;;4989293;28;20421;-73
2023/06/02 04:27:22;;;;;;;12.90;11.90;;;16.70;22.80;;;;;;4992766;28;20178;-74
2023/06/02 04:29:47;;;;;;;12.67;11.87;;;16.70;23.00;;;;;;4992398;28;20186;-73
2023/06/02 04:32:13;;;;;;;13.30;12.40;;;16.70;23.00;;;;;;4991968;28;20202;-73
2023/06/02 04:34:38;;;;;;;13.20;12.30;;;16.60;23.10;;;;;;4989918;28;20248;-73
2023/06/02 04:37:05;;;;;;;13.70;12.90;;;16.60;23.20;;;;;;4991312;28;20248;-73
2023/06/02 04:39:31;;;;;;;13.23;12.43;;;16.50;23.50;;;;;;4992607;28;20176;-72
2023/06/02 04:41:57;;;;;;;13.30;12.47;;;16.50;23.70;;;;;;4991901;28;20413;-72
2023/06/02 04:44:23;;;;;;;13.93;12.93;;;16.40;23.80;;;;;;4993004;28;21116;-74
2023/06/02 04:46:49;;;;;;;15.00;13.70;;;16.40;24.10;;;;;;4992598;28;20485;-74
2023/06/02 04:49:15;;;;;;;13.23;12.43;;;16.30;24.20;;;;;;4991626;28;20420;-74
2023/06/02 04:51:41;;;;;;;13.50;12.70;;;16.20;24.50;;;;;;4991788;28;20285;-74
2023/06/02 04:54:07;;;;;;;13.70;12.70;;;16.20;24.90;;;;;;4992505;28;20429;-74
2023/06/02 04:56:35;;;;;;;13.70;12.90;;;16.20;25.00;;;;;;4990828;28;20429;-74
2023/06/02 04:59:00;;;;;;;13.70;12.70;;;16.20;25.50;;;;;;4992119;28;20405;-73
2023/06/02 05:01:28;;;;;;;14.67;13.57;;;16.20;25.60;;;;;;4991696;28;20938;-73
2023/06/02 05:03:54;;;;;;;12.60;11.80;;;16.20;25.70;;;;;;4992211;28;20212;-73
2023/06/02 05:06:19;;;;;;;14.70;13.70;;;16.10;25.80;;;;;;4992189;28;20908;-73
2023/06/02 05:08:45;;;;;;;14.30;13.20;;;16.20;25.90;;;;;;4990983;28;20428;-73
2023/06/02 05:11:10;;;;;;;14.47;13.43;;;16.10;26.20;;;;;;4991803;28;20596;-73
2023/06/02 05:13:37;;;;;;;15.37;14.17;;;16.20;26.20;;;;;;4992197;28;20240;-73
2023/06/02 05:16:03;;;;;;;14.73;13.77;;;16.20;26.10;;;;;;4991066;28;20177;-73
2023/06/02 05:18:28;;;;;;;14.57;13.47;;;16.20;26.30;;;;;;4990080;28;20460;-72
2023/06/02 05:20:55;;;;;;;14.73;13.63;;;16.30;26.20;;;;;;4989786;28;20416;-73
2023/06/02 05:23:21;;;;;;;15.30;14.20;;;16.20;26.60;;;;;;4991687;28;20196;-73
2023/06/02 05:25:49;;;;;;;15.20;14.10;;;16.30;26.50;;;;;;4990973;28;20511;-73
2023/06/02 05:28:15;;;;;;;14.73;13.83;;;16.40;26.60;;;;;;4991306;28;20668;-73
2023/06/02 05:30:40;;;;;;;14.60;13.50;;;16.30;26.90;;;;;;4991859;28;20410;-73
2023/06/02 05:33:06;;;;;;;15.00;14.07;;;16.30;27.10;;;;;;4991774;28;20206;-72
2023/06/02 05:35:31;;;;;;;14.27;13.30;;;16.30;27.50;;;;;;4992515;28;20250;-73
2023/06/02 05:37:57;;;;;;;14.50;13.50;;;16.30;27.50;;;;;;4991418;28;20216;-73
2023/06/02 05:40:23;;;;;;;14.77;13.80;;;16.40;27.50;;;;;;4991756;28;20178;-73
2023/06/02 05:42:48;;;;;;;16.00;14.87;;;16.40;27.30;;;;;;4988898;28;20206;-73
2023/06/02 05:45:14;;;;;;;16.23;15.07;;;16.50;27.10;;;;;;4991610;28;20174;-74
2023/06/02 05:47:39;;;;;;;14.00;13.10;;;16.40;27.10;;;;;;5014952;28;20185;-74
2023/06/02 05:50:05;;;;;;;15.40;14.27;;;16.40;27.50;;;;;;5000141;28;20174;-74
2023/06/02 05:52:31;;;;;;;15.13;14.20;;;16.40;27.50;;;;;;5001540;28;20194;-73
2023/06/02 05:54:56;;;;;;;15.57;14.67;;;16.50;27.30;;;;;;5006762;28;20455;-73
2023/06/02 05:57:22;;;;;;;14.83;14.00;;;16.60;27.20;;;;;;5002900;28;20206;-72
2023/06/02 05:59:48;;;;;;;15.37;14.37;;;16.50;27.60;;;;;;5003545;28;20178;-72
2023/06/02 06:02:13;;;;;;;14.63;13.57;;;16.40;27.60;;;;;;5003933;28;20281;-74
2023/06/02 06:04:39;;;;;;;14.90;14.00;;;16.50;27.60;;;;;;5012005;28;20587;-73
2023/06/02 06:07:05;;;;;;;15.77;14.40;;;16.60;27.50;;;;;;5015220;28;20182;-73
2023/06/02 06:09:31;;;;;;;15.67;14.67;;;16.60;27.70;;;;;;5015270;28;20178;-72
2023/06/02 06:11:56;;;;;;;15.97;14.70;;;16.60;27.70;;;;;;5013849;28;20433;-72
2023/06/02 06:14:22;;;;;;;15.77;14.60;;;16.60;27.70;;;;;;5013287;28;20208;-72
2023/06/02 06:16:47;;;;;;;15.10;14.23;;;16.70;27.20;;;;;;5013593;28;20177;-73
2023/06/02 06:19:13;;;;;;;14.47;13.37;;;16.70;27.70;;;;;;5014066;28;20222;-73
2023/06/02 06:21:39;;;;;;;14.93;14.00;;;16.70;28.30;;;;;;5011346;28;20253;-74
2023/06/02 06:24:08;;;;;;;14.13;13.23;;;16.70;27.40;;;;;;5012217;28;20217;-74
2023/06/02 06:26:34;;;;;;;14.43;13.50;;;16.70;27.30;;;;;;4998132;28;20186;-74
2023/06/02 06:28:59;;;;;;;15.90;14.80;;;16.80;27.80;;;;;;4994728;28;20416;-74
2023/06/02 06:31:25;;;;;;;14.27;13.27;;;16.80;27.30;;;;;;4994184;28;20417;-74
2023/06/02 06:33:51;;;;;;;15.60;14.50;;;16.90;27.30;;;;;;4995187;28;20193;-73
2023/06/02 06:36:17;;;;;;;15.13;14.23;;;16.80;27.30;;;;;;4994540;28;20181;-73
2023/06/02 06:38:42;;;;;;;15.30;14.30;;;16.90;27.30;;;;;;4995600;28;20547;-73
2023/06/02 06:41:08;;;;;;;16.07;15.07;;;16.90;27.20;;;;;;4991782;28;20173;-73
2023/06/02 06:43:33;;;;;;;16.10;14.80;;;16.90;27.00;;;;;;4993691;28;20190;-72
2023/06/02 06:45:59;;;;;;;16.67;15.47;;;16.90;27.00;;;;;;4995143;28;20224;-74
2023/06/02 06:48:25;;;;;;;15.70;14.40;;;17.00;26.90;;;;;;4993582;28;20193;-74
2023/06/02 06:50:51;;;;;;;15.20;14.23;;;17.00;27.10;;;;;;4992872;28;20799;-73
2023/06/02 06:53:17;;;;;;;15.47;14.57;;;17.00;26.80;;;;;;4992818;28;20436;-73
2023/06/02 06:55:43;;;;;;;16.00;14.63;;;17.00;27.10;;;;;;4992606;28;20552;-74
2023/06/02 06:58:12;;;;;;;15.87;14.70;;;17.00;26.80;;;;;;4993618;28;20457;-74
2023/06/02 07:00:38;;;;;;;15.93;14.83;;;17.00;27.10;;;;;;4989551;28;20206;-74
2023/06/02 07:03:04;;;;;;;15.27;14.30;;;17.00;27.30;;;;;;4991364;28;20437;-74
2023/06/02 07:05:30;;;;;;;15.20;14.30;;;17.00;27.10;;;;;;4993778;28;20428;-73
2023/06/02 07:07:57;;;;;;;15.10;14.10;;;17.00;27.30;;;;;;4981555;28;20594;-74
2023/06/02 07:10:22;;;;;;;14.67;13.77;;;17.10;27.40;;;;;;4986107;28;20182;-74
2023/06/02 07:12:48;;;;;;;15.83;14.70;;;17.20;27.00;;;;;;4992066;28;20469;-74
2023/06/02 07:15:14;;;;;;;15.10;13.90;;;17.20;26.90;;;;;;4993780;28;20177;-75
2023/06/02 07:17:40;;;;;;;14.77;13.87;;;17.20;26.90;;;;;;4992472;28;20289;-74
2023/06/02 07:20:11;;;;;;;14.17;13.37;;;17.20;26.50;;;;;;4992804;28;20437;-74
2023/06/02 07:22:37;;;;;;;14.10;13.20;;;17.20;26.70;;;;;;4992629;28;20483;-74
2023/06/02 07:25:04;;;;;;;15.20;14.20;;;17.20;26.80;;;;;;4993050;28;20410;-73
2023/06/02 07:27:31;;;;;;;14.30;13.30;;;17.30;26.80;;;;;;4992194;28;20429;-74
2023/06/02 07:29:56;;;;;;;13.63;12.80;;;17.20;26.90;;;;;;4993238;28;20920;-73
2023/06/02 07:32:22;;;;;;;13.17;12.40;;;17.20;26.70;;;;;;4992433;28;20524;-72
2023/06/02 07:34:48;;;;;;;14.20;13.30;;;17.20;26.80;;;;;;4992860;28;20192;-72
2023/06/02 07:37:13;;;;;;;15.00;14.07;;;17.30;26.60;;;;;;4992907;28;20611;-72
2023/06/02 07:39:39;;;;;;;13.57;12.67;;;17.30;26.40;;;;;;4993075;28;20607;-72
2023/06/02 07:42:05;;;;;;;15.97;14.57;;;17.40;26.50;;;;;;4992198;28;20174;-73
2023/06/02 07:44:31;;;;;;;14.37;13.57;;;17.40;26.20;;;;;;4993443;28;20166;-72
2023/06/02 07:46:56;;;;;;;15.07;14.07;;;17.30;26.50;;;;;;4983277;28;21212;-72
2023/06/02 07:49:22;;;;;;;14.10;13.20;;;17.40;26.30;;;;;;4974020;28;20182;-73
2023/06/02 07:51:48;;;;;;;13.77;12.97;;;17.40;26.30;;;;;;4973276;28;20217;-74
2023/06/02 07:54:13;;;;;;;13.47;12.57;;;17.50;26.00;;;;;;4985602;28;20676;-74
2023/06/02 07:56:39;;;;;;;16.20;14.87;;;17.50;25.80;;;;;;4992690;28;20660;-74
2023/06/02 07:59:04;;;;;;;14.07;13.13;;;17.60;25.70;;;;;;4993026;28;20178;-74
2023/06/02 08:01:30;;;;;;;16.13;15.13;;;17.70;25.50;;;;;;4992664;28;20177;-74
2023/06/02 08:03:56;;;;;;;15.90;14.60;;;17.70;25.40;;;;;;4993147;28;20425;-74
2023/06/02 08:06:21;;;;;;;14.43;13.63;;;17.70;25.40;;;;;;4993695;28;20210;-74
2023/06/02 08:08:47;;;;;;;15.93;15.07;;;17.60;25.60;;;;;;4993051;28;20265;-75
2023/06/02 08:11:13;;;;;;;15.90;15.00;;;17.60;25.80;;;;;;4992011;28;20174;-75
2023/06/02 08:13:38;;;;;;;15.93;14.93;;;17.70;25.80;;;;;;4992582;28;20209;-73
2023/06/02 08:16:05;;;;;;;16.10;15.20;;;17.80;25.50;;;;;;4992913;28;20467;-72
2023/06/02 08:18:30;;;;;;;17.07;16.00;;;17.80;25.30;;;;;;4993253;28;20224;-72
2023/06/02 08:20:56;;;;;;;16.67;15.67;;;17.80;25.30;;;;;;4992415;28;20401;-71
2023/06/02 08:23:22;;;;;;;17.73;16.37;;;17.80;25.60;;;;;;4992173;28;20271;-73
2023/06/02 08:25:48;;;;;;;16.30;15.20;;;17.80;25.40;;;;;;4992597;28;20174;-72
2023/06/02 08:28:13;;;;;;;16.47;15.50;;;17.90;25.50;;;;;;4992488;28;20278;-74
2023/06/02 08:30:42;;;;;;;16.17;15.17;;;17.90;25.40;;;;;;4992488;28;20967;-74
2023/06/02 08:33:08;;;;;;;15.80;14.90;;;18.00;25.40;;;;;;4990986;28;20333;-74
2023/06/02 08:35:36;;;;;;;16.87;15.97;;;18.20;24.90;;;;;;4992696;28;20939;-72
2023/06/02 08:38:07;;;;;;;15.63;14.73;;;18.30;24.70;;;;;;4992364;28;20464;-73
2023/06/02 08:40:37;;;;;;;15.83;14.80;;;18.30;24.50;;;;;;4992363;28;20406;-73
2023/06/02 08:43:04;;;;;;;15.40;14.30;;;18.30;24.70;;;;;;4991275;28;20453;-73
2023/06/02 08:45:30;;;;;;;15.90;14.80;;;18.30;24.30;;;;;;4991973;28;20402;-74
2023/06/02 08:47:57;;;;;;;15.80;14.60;;;18.40;24.30;;;;;;4991647;28;20449;-73
2023/06/02 08:50:27;;;;;;;16.07;15.07;;;18.40;24.40;;;;;;4991945;28;20431;-74
2023/06/02 08:52:55;;;;;;;15.40;14.40;;;18.40;24.10;;;;;;4989353;28;20524;-75
2023/06/02 08:55:23;;;;;;;17.60;16.40;;;18.40;24.40;;;;;;4990129;28;20418;-75
2023/06/02 08:57:49;;;;;;;16.83;15.60;;;18.40;24.50;;;;;;4991560;28;20464;-74
2023/06/02 09:00:15;;;;;;;17.47;16.37;;;18.40;24.20;;;;;;4991551;28;20749;-73
2023/06/02 09:02:40;;;;;;;17.87;16.70;;;18.40;24.30;;;;;;4991519;28;20194;-75
2023/06/02 09:05:07;;;;;;;16.00;14.80;;;18.40;24.20;;;;;;4991501;28;20424;-74
2023/06/02 09:07:33;;;;;;;16.00;14.90;;;18.40;24.60;;;;;;4989480;28;20672;-73
2023/06/02 09:09:59;;;;;;;16.90;15.53;;;18.40;24.60;;;;;;4991176;28;20425;-74
2023/06/02 09:12:24;;;;;;;15.60;14.60;;;18.40;24.40;;;;;;4990750;28;20642;-75
2023/06/02 09:15:08;;;;;;;16.60;15.57;;;18.50;24.60;;;;;;4990851;28;20186;-75
2023/06/02 09:17:33;;;;;;;14.83;13.93;;;18.50;24.60;;;;;;4991494;28;20202;-74
2023/06/02 09:20:06;;;;;;;16.13;15.20;;;18.60;24.50;;;;;;4991374;28;20447;-73
2023/06/02 09:22:33;;;;;;;14.43;13.53;;;18.60;24.60;;;;;;4988781;28;20714;-72
2023/06/02 09:24:58;;;;;;;15.93;15.03;;;18.60;24.90;;;;;;4991297;28;20421;-73
2023/06/02 09:27:28;;;;;;;15.03;13.70;;;18.60;24.30;;;;;;4990624;28;20420;-71
2023/06/02 09:30:03;;;;;;;15.03;14.00;;;18.80;24.30;;;;;;4991196;28;20180;-72
2023/06/02 09:32:28;;;;;;;15.07;14.07;;;18.90;24.00;;;;;;4990302;28;20447;-74
2023/06/02 09:34:54;;;;;;;15.60;14.70;;;19.10;22.80;;;;;;4991033;28;20908;-73
2023/06/02 09:37:21;;;;;;;16.80;15.67;;;19.30;22.60;;;;;;4991103;28;20202;-73
2023/06/02 09:39:53;;;;;;;17.63;16.03;;;19.40;22.40;;;;;;4991089;28;20185;-75
2023/06/02 09:42:19;;;;;;;15.17;14.37;;;19.40;22.00;;;;;;4989803;28;20472;-73
2023/06/02 09:45:05;;;;;;;17.20;16.07;;;19.40;21.60;;;;;;4990969;28;20464;-72
2023/06/02 09:47:37;;;;;;;15.17;14.07;;;19.80;21.10;;;;;;4989779;28;20931;-72
2023/06/02 09:50:03;;;;;;;13.23;12.53;;;20.00;20.60;;;;;;4989785;28;20431;-73
2023/06/02 09:52:29;;;;;;;14.23;13.37;;;20.30;19.50;;;;;;4990437;28;20491;-73
2023/06/02 09:54:55;;;;;;;13.73;12.67;;;20.50;18.40;;;;;;4989642;28;20425;-73
2023/06/02 09:57:20;;;;;;;15.53;14.47;;;20.70;18.50;;;;;;4991296;28;20217;-73
2023/06/02 09:59:47;;;;;;;13.10;11.90;;;20.80;18.50;;;;;;4991097;28;20648;-74
2023/06/02 10:02:13;;;;;;;13.40;12.50;;;20.80;18.40;;;;;;5005629;28;20563;-74
2023/06/02 10:04:38;;;;;;;14.70;13.90;;;21.00;18.80;;;;;;4991280;28;20773;-76
2023/06/02 10:07:23;;;;;;;14.93;14.00;;;21.00;18.60;;;;;;4990755;28;20425;-75
2023/06/02 10:09:58;;;;;;;13.60;12.30;;;21.10;18.40;;;;;;4991628;28;20185;-74
2023/06/02 10:13:04;;;;;;;13.07;12.07;;;21.20;18.10;;;;;;4992920;28;20831;-75
2023/06/02 10:15:53;;;;;;;14.30;13.40;;;21.20;18.20;;;;;;4991382;28;20498;-73
2023/06/02 10:18:50;;;;;;;13.37;12.33;;;21.30;18.20;;;;;;4990319;28;20461;-74
2023/06/02 10:21:48;;;;;;;12.63;11.70;;;21.40;17.60;;;;;;4978207;28;20492;-74
2023/06/02 10:24:37;;;;;;;12.87;12.07;;;21.60;17.50;;;;;;4981476;28;20445;-75
2023/06/02 10:27:05;;;;;;;14.47;13.47;;;21.60;17.20;;;;;;4990753;28;20427;-73
2023/06/02 10:29:33;;;;;;;11.40;10.50;;;21.80;17.20;;;;;;4989627;28;20436;-73
2023/06/02 10:32:00;;;;;;;12.67;11.77;;;21.80;17.00;;;;;;4990488;28;20946;-75
2023/06/02 10:34:34;;;;;;;12.37;11.50;;;21.80;17.00;;;;;;4993243;28;20831;-75
2023/06/02 10:37:00;;;;;;;11.83;10.80;;;21.70;17.00;;;;;;4991405;28;20421;-74
2023/06/02 10:39:51;;;;;;;12.43;11.30;;;21.70;17.30;;;;;;4994431;28;20409;-74
2023/06/02 10:42:18;;;;;;;12.20;11.50;;;21.80;16.60;;;;;;4993221;28;20214;-74
2023/06/02 10:44:44;;;;;;;13.17;12.17;;;21.90;16.30;;;;;;4994650;28;20413;-74
2023/06/02 10:47:18;;;;;;;12.03;11.23;;;21.90;15.80;;;;;;4994529;28;20413;-73
2023/06/02 10:49:55;;;;;;;12.03;11.17;;;22.00;16.00;;;;;;4993646;28;20412;-73
2023/06/02 10:52:22;;;;;;;11.93;11.13;;;22.00;16.40;;;;;;4993182;28;20524;-74
2023/06/02 10:55:13;;;;;;;12.27;11.57;;;22.00;16.40;;;;;;4994041;28;20413;-74
2023/06/02 10:57:50;;;;;;;12.67;11.90;;;21.90;16.00;;;;;;4994120;28;20963;-74
2023/06/02 11:00:39;;;;;;;12.83;12.00;;;21.90;15.90;;;;;;4993609;28;20503;-73
2023/06/02 11:03:22;;;;;;;12.37;11.47;;;21.90;16.20;;;;;;4991885;28;20456;-72
2023/06/02 11:05:49;;;;;;;12.87;11.80;;;21.80;16.50;;;;;;4994060;28;20413;-72
2023/06/02 11:08:18;;;;;;;10.97;10.17;;;21.90;16.50;;;;;;4993099;28;20499;-72
2023/06/02 11:10:50;;;;;;;11.20;10.50;;;21.90;16.30;;;;;;4993879;28;20413;-73
2023/06/02 11:13:18;;;;;;;10.87;10.23;;;21.90;15.50;;;;;;4993366;28;20457;-75
2023/06/02 11:15:56;;;;;;;11.97;10.97;;;21.90;15.30;;;;;;4993025;28;20814;-73
2023/06/02 11:18:22;;;;;;;12.07;11.27;;;21.90;15.40;;;;;;4993849;28;20456;-74
2023/06/02 11:20:51;;;;;;;10.97;10.30;;;21.80;15.40;;;;;;4993719;28;20496;-74
2023/06/02 11:23:18;;;;;;;11.60;10.80;;;21.80;15.50;;;;;;4992826;28;20194;-76
2023/06/02 11:25:44;;;;;;;10.00;9.37;;;21.80;15.10;;;;;;4993549;28;20520;-72
2023/06/02 11:28:21;;;;;;;11.00;10.27;;;21.70;14.90;;;;;;4992946;28;20509;-72
2023/06/02 11:31:04;;;;;;;10.80;10.17;;;21.70;14.30;;;;;;4993593;28;20459;-73
2023/06/02 11:33:34;;;;;;;10.07;9.47;;;21.80;14.90;;;;;;4993370;28;20425;-72
2023/06/02 11:36:03;;;;;;;11.40;10.70;;;21.70;14.20;;;;;;4991933;28;20425;-74
2023/06/02 11:38:32;;;;;;;11.13;10.53;;;21.60;14.50;;;;;;4993112;28;20959;-73
2023/06/02 11:41:24;;;;;;;12.33;11.50;;;21.60;14.80;;;;;;4992862;28;20420;-73
2023/06/02 11:44:01;;;;;;;11.53;10.80;;;21.60;14.20;;;;;;4992298;28;20889;-73
2023/06/02 11:46:27;;;;;;;11.53;10.83;;;21.60;14.20;;;;;;4990792;28;20428;-74
2023/06/02 11:48:53;;;;;;;11.60;10.70;;;21.70;14.20;;;;;;4991692;28;20410;-73
2023/06/02 11:51:18;;;;;;;11.23;10.40;;;21.60;13.30;;;;;;4991679;28;20176;-74
2023/06/02 11:53:45;;;;;;;10.90;10.00;;;21.60;14.20;;;;;;5007520;28;20209;-74
2023/06/02 11:56:13;;;;;;;10.30;9.80;;;21.70;14.20;;;;;;4992706;28;20248;-73
2023/06/02 11:58:46;;;;;;;11.17;10.50;;;21.70;14.20;;;;;;4992895;28;20564;-73
2023/06/02 12:01:21;;;;;;;11.70;11.00;;;21.80;14.50;;;;;;4992243;28;20459;-73
2023/06/02 12:04:03;;;;;;;11.20;10.50;;;21.80;14.70;;;;;;4992506;28;20428;-76
2023/06/02 12:06:30;;;;;;;10.60;9.90;;;21.70;14.20;;;;;;4992817;28;20409;-73
2023/06/02 12:08:56;;;;;;;11.47;10.47;;;21.60;14.20;;;;;;4992771;28;20447;-74
2023/06/02 12:11:23;;;;;;;10.77;10.13;;;21.60;14.20;;;;;;4993152;28;20505;-72
2023/06/02 12:13:59;;;;;;;9.57;8.90;;;21.60;14.10;;;;;;4993389;28;20469;-73
2023/06/02 12:16:25;;;;;;;10.33;9.43;;;21.70;13.60;;;;;;4992276;28;20429;-71
2023/06/02 12:18:53;;;;;;;10.10;9.50;;;21.60;14.00;;;;;;4993400;28;20493;-72
2023/06/02 12:21:26;;;;;;;10.40;9.80;;;21.70;13.70;;;;;;4990599;28;20440;-73
2023/06/02 12:23:57;;;;;;;11.43;10.53;;;21.70;13.50;;;;;;4992617;28;20480;-73
2023/06/02 12:26:24;;;;;;;10.60;10.03;;;21.80;11.80;;;;;;4992955;28;20520;-72
2023/06/02 12:28:50;;;;;;;9.60;9.10;;;21.90;12.20;;;;;;4992944;28;20847;-72
2023/06/02 12:31:19;;;;;;;10.30;9.50;;;21.90;12.00;;;;;;4992054;28;20789;-72
2023/06/02 12:33:45;;;;;;;9.27;8.80;;;21.90;12.30;;;;;;4993180;28;20429;-73